createdAt,value
2022-07-28T00:00:42.000Z,97881
2022-07-28T00:02:48.000Z,97882
2022-07-28T00:04:15.000Z,97884
2022-07-28T00:06:22.000Z,97888
2022-07-28T00:07:48.000Z,97886
2022-07-28T00:09:54.000Z,97885
2022-07-28T00:11:27.000Z,97881
2022-07-28T00:13:33.000Z,97875
2022-07-28T00:14:59.000Z,97875
2022-07-28T00:17:05.000Z,97875
2022-07-28T00:18:32.000Z,97872
2022-07-28T00:20:38.000Z,97869
2022-07-28T00:23:29.000Z,97871
2022-07-28T00:25:05.000Z,97872
2022-07-28T00:27:11.000Z,97869
2022-07-28T00:28:38.000Z,97870
2022-07-28T00:30:44.000Z,97871
2022-07-28T00:32:10.000Z,97868
2022-07-28T00:34:17.000Z,97868
2022-07-28T00:35:44.000Z,97866
2022-07-28T00:37:54.000Z,97862
2022-07-28T00:39:21.000Z,97863
2022-07-28T00:41:27.000Z,97858
2022-07-28T00:42:54.000Z,97861
2022-07-28T00:45:00.000Z,97862
2022-07-28T00:46:27.000Z,97858
2022-07-28T00:48:33.000Z,97861
2022-07-28T00:49:59.000Z,97858
2022-07-28T00:52:06.000Z,97856
2022-07-28T00:53:32.000Z,97857
2022-07-28T00:55:38.000Z,97857
2022-07-28T00:57:32.000Z,97858
2022-07-28T00:59:38.000Z,97855
2022-07-28T01:02:30.000Z,97854
2022-07-28T01:03:56.000Z,97850
2022-07-28T01:06:03.000Z,97851
2022-07-28T01:07:29.000Z,97846
2022-07-28T01:09:35.000Z,97846
2022-07-28T01:11:02.000Z,97846
2022-07-28T01:13:08.000Z,97846
2022-07-28T01:14:34.000Z,97845
2022-07-28T01:16:40.000Z,97850
2022-07-28T01:18:07.000Z,97847
2022-07-28T01:20:13.000Z,97848
2022-07-28T01:21:40.000Z,97848
2022-07-28T01:23:46.000Z,97852
2022-07-28T01:25:12.000Z,97851
2022-07-28T01:27:18.000Z,97848
2022-07-28T01:28:45.000Z,97850
2022-07-28T01:30:51.000Z,97843
2022-07-28T01:32:18.000Z,97845
2022-07-28T01:34:24.000Z,97850
2022-07-28T01:35:50.000Z,97845
2022-07-28T01:37:56.000Z,97845
2022-07-28T01:40:48.000Z,97843
2022-07-28T01:42:16.000Z,97841
2022-07-28T01:44:22.000Z,97844
2022-07-28T01:45:51.000Z,97841
2022-07-28T01:47:57.000Z,97838
2022-07-28T01:49:24.000Z,97837
2022-07-28T01:51:30.000Z,97840
2022-07-28T01:52:56.000Z,97838
2022-07-28T01:55:03.000Z,97835
2022-07-28T01:56:29.000Z,97834
2022-07-28T01:58:35.000Z,97834
2022-07-28T02:00:02.000Z,97831
2022-07-28T02:02:08.000Z,97832
2022-07-28T02:03:34.000Z,97830
2022-07-28T02:05:41.000Z,97825
2022-07-28T02:07:07.000Z,97825
2022-07-28T02:09:13.000Z,97828
2022-07-28T02:10:40.000Z,97828
2022-07-28T02:12:46.000Z,97827
2022-07-28T02:14:12.000Z,97825
2022-07-28T02:16:19.000Z,97817
2022-07-28T02:19:10.000Z,97817
2022-07-28T02:20:39.000Z,97818
2022-07-28T02:22:45.000Z,97821
2022-07-28T02:24:18.000Z,97818
2022-07-28T02:26:24.000Z,97817
2022-07-28T02:27:51.000Z,97811
2022-07-28T02:29:57.000Z,97817
2022-07-28T02:31:23.000Z,97813
2022-07-28T02:33:29.000Z,97808
2022-07-28T02:35:26.000Z,97806
2022-07-28T02:37:38.000Z,97807
2022-07-28T02:39:04.000Z,97804
2022-07-28T02:41:10.000Z,97804
2022-07-28T02:42:37.000Z,97806
2022-07-28T02:44:43.000Z,97801
2022-07-28T02:46:09.000Z,97799
2022-07-28T02:48:16.000Z,97799
2022-07-28T02:49:42.000Z,97800
2022-07-28T02:51:48.000Z,97798
2022-07-28T02:53:15.000Z,97795
2022-07-28T02:55:22.000Z,97796
2022-07-28T02:58:13.000Z,97789
2022-07-28T02:59:40.000Z,97792
2022-07-28T03:01:46.000Z,97798
2022-07-28T03:03:12.000Z,97798
2022-07-28T03:05:18.000Z,97799
2022-07-28T03:06:45.000Z,97795
2022-07-28T03:08:51.000Z,97800
2022-07-28T03:10:18.000Z,97802
2022-07-28T03:12:40.000Z,97801
2022-07-28T03:14:06.000Z,97801
2022-07-28T03:16:12.000Z,97796
2022-07-28T03:17:39.000Z,97800
2022-07-28T03:19:45.000Z,97801
2022-07-28T03:21:12.000Z,97803
2022-07-28T03:23:18.000Z,97801
2022-07-28T03:24:44.000Z,97801
2022-07-28T03:26:50.000Z,97802
2022-07-28T03:28:17.000Z,97806
2022-07-28T03:30:23.000Z,97805
2022-07-28T03:31:50.000Z,97809
2022-07-28T03:33:56.000Z,97806
2022-07-28T03:36:47.000Z,97807
2022-07-28T03:38:14.000Z,97805
2022-07-28T03:40:23.000Z,97801
2022-07-28T03:41:50.000Z,97797
2022-07-28T03:43:56.000Z,97802
2022-07-28T03:45:22.000Z,97805
2022-07-28T03:47:28.000Z,97803
2022-07-28T03:48:55.000Z,97804
2022-07-28T03:51:01.000Z,97795
2022-07-28T03:52:27.000Z,97798
2022-07-28T03:54:34.000Z,97800
2022-07-28T03:56:00.000Z,97803
2022-07-28T03:58:06.000Z,97807
2022-07-28T03:59:33.000Z,97804
2022-07-28T04:01:40.000Z,97804
2022-07-28T04:03:06.000Z,97803
2022-07-28T04:05:49.000Z,97800
2022-07-28T04:07:15.000Z,97803
2022-07-28T04:09:22.000Z,97797
2022-07-28T04:10:48.000Z,97799
2022-07-28T04:12:54.000Z,97793
2022-07-28T04:15:46.000Z,97804
2022-07-28T04:17:12.000Z,97804
2022-07-28T04:19:18.000Z,97799
2022-07-28T04:20:45.000Z,97799
2022-07-28T04:22:51.000Z,97799
2022-07-28T04:24:17.000Z,97797
2022-07-28T04:26:24.000Z,97796
2022-07-28T04:27:50.000Z,97798
2022-07-28T04:29:56.000Z,97798
2022-07-28T04:31:23.000Z,97797
2022-07-28T04:33:29.000Z,97799
2022-07-28T04:34:56.000Z,97799
2022-07-28T04:37:02.000Z,97797
2022-07-28T04:38:29.000Z,97798
2022-07-28T04:40:35.000Z,97795
2022-07-28T04:42:01.000Z,97796
2022-07-28T04:44:07.000Z,97793
2022-07-28T04:45:34.000Z,97797
2022-07-28T04:47:40.000Z,97796
2022-07-28T04:49:07.000Z,97797
2022-07-28T04:51:13.000Z,97798
2022-07-28T04:54:04.000Z,97798
2022-07-28T04:55:30.000Z,97797
2022-07-28T04:57:38.000Z,97799
2022-07-28T04:59:05.000Z,97798
2022-07-28T05:01:11.000Z,97797
2022-07-28T05:02:38.000Z,97793
2022-07-28T05:04:44.000Z,97790
2022-07-28T05:06:10.000Z,97792
2022-07-28T05:08:17.000Z,97794
2022-07-28T05:09:43.000Z,97797
2022-07-28T05:11:49.000Z,97795
2022-07-28T05:13:16.000Z,97793
2022-07-28T05:15:22.000Z,97795
2022-07-28T05:16:49.000Z,97798
2022-07-28T05:18:55.000Z,97796
2022-07-28T05:20:21.000Z,97797
2022-07-28T05:22:28.000Z,97795
2022-07-28T05:23:54.000Z,97790
2022-07-28T05:26:00.000Z,97791
2022-07-28T05:27:27.000Z,97793
2022-07-28T05:29:33.000Z,97790
2022-07-28T05:32:38.000Z,97789
2022-07-28T05:34:05.000Z,97788
2022-07-28T05:36:11.000Z,97787
2022-07-28T05:37:37.000Z,97786
2022-07-28T05:39:43.000Z,97787
2022-07-28T05:41:10.000Z,97791
2022-07-28T05:43:16.000Z,97792
2022-07-28T05:44:42.000Z,97789
2022-07-28T05:46:49.000Z,97793
2022-07-28T05:48:15.000Z,97795
2022-07-28T05:50:21.000Z,97797
2022-07-28T05:51:48.000Z,97794
2022-07-28T05:53:54.000Z,97795
2022-07-28T05:55:20.000Z,97799
2022-07-28T05:57:26.000Z,97798
2022-07-28T05:58:53.000Z,97797
2022-07-28T06:00:59.000Z,97797
2022-07-28T06:02:26.000Z,97797
2022-07-28T06:04:32.000Z,97800
2022-07-28T06:05:59.000Z,97791
2022-07-28T06:08:21.000Z,97790
2022-07-28T06:11:12.000Z,97790
2022-07-28T06:12:49.000Z,97785
2022-07-28T06:14:55.000Z,97785
2022-07-28T06:16:21.000Z,97784
2022-07-28T06:18:28.000Z,97785
2022-07-28T06:19:54.000Z,97787
2022-07-28T06:22:00.000Z,97785
2022-07-28T06:23:27.000Z,97783
2022-07-28T06:25:33.000Z,97779
2022-07-28T06:26:59.000Z,97782
2022-07-28T06:29:06.000Z,97787
2022-07-28T06:30:32.000Z,97784
2022-07-28T06:32:38.000Z,97782
2022-07-28T06:34:05.000Z,97786
2022-07-28T06:36:11.000Z,97780
2022-07-28T06:37:37.000Z,97780
2022-07-28T06:39:44.000Z,97785
2022-07-28T06:41:10.000Z,97782
2022-07-28T06:43:16.000Z,97784
2022-07-28T06:44:43.000Z,97780
2022-07-28T06:47:05.000Z,97785
2022-07-28T06:49:56.000Z,97783
2022-07-28T06:51:22.000Z,97782
2022-07-28T06:53:29.000Z,97782
2022-07-28T06:55:01.000Z,97782
2022-07-28T06:57:08.000Z,97780
2022-07-28T06:58:36.000Z,97776
2022-07-28T07:00:42.000Z,97772
2022-07-28T07:02:08.000Z,97769
2022-07-28T07:04:15.000Z,97768
2022-07-28T07:05:42.000Z,97765
2022-07-28T07:07:48.000Z,97768
2022-07-28T07:09:15.000Z,97769
2022-07-28T07:11:21.000Z,97771
2022-07-28T07:12:47.000Z,97770
2022-07-28T07:14:53.000Z,97767
2022-07-28T07:16:20.000Z,97770
2022-07-28T07:18:26.000Z,97770
2022-07-28T07:19:53.000Z,97771
2022-07-28T07:21:59.000Z,97769
2022-07-28T07:23:25.000Z,97767
2022-07-28T07:25:31.000Z,97766
2022-07-28T07:28:23.000Z,97760
2022-07-28T07:29:50.000Z,97760
2022-07-28T07:31:56.000Z,97758
2022-07-28T07:33:22.000Z,97762
2022-07-28T07:35:28.000Z,97760
2022-07-28T07:36:55.000Z,97757
2022-07-28T07:39:01.000Z,97756
2022-07-28T07:40:27.000Z,97755
2022-07-28T07:42:34.000Z,97750
2022-07-28T07:44:00.000Z,97751
2022-07-28T07:46:07.000Z,97748
2022-07-28T07:47:33.000Z,97753
2022-07-28T07:49:39.000Z,97750
2022-07-28T07:51:12.000Z,97751
2022-07-28T07:53:21.000Z,97755
2022-07-28T07:54:48.000Z,97753
2022-07-28T07:56:54.000Z,97749
2022-07-28T07:58:20.000Z,97743
2022-07-28T08:00:27.000Z,97746
2022-07-28T08:01:55.000Z,97744
2022-07-28T08:04:02.000Z,97744
2022-07-28T08:06:54.000Z,97739
2022-07-28T08:08:21.000Z,97738
2022-07-28T08:10:27.000Z,97734
2022-07-28T08:11:53.000Z,97732
2022-07-28T08:14:00.000Z,97731
2022-07-28T08:15:26.000Z,97731
2022-07-28T08:17:32.000Z,97731
2022-07-28T08:18:59.000Z,97731
2022-07-28T08:21:05.000Z,97725
2022-07-28T08:22:31.000Z,97720
2022-07-28T08:24:37.000Z,97721
2022-07-28T08:26:04.000Z,97720
2022-07-28T08:28:10.000Z,97721
2022-07-28T08:29:37.000Z,97721
2022-07-28T08:31:43.000Z,97717
2022-07-28T08:33:10.000Z,97719
2022-07-28T08:35:16.000Z,97719
2022-07-28T08:37:00.000Z,97720
2022-07-28T08:39:06.000Z,97721
2022-07-28T08:40:32.000Z,97718
2022-07-28T08:42:39.000Z,97717
2022-07-28T08:45:30.000Z,97712
2022-07-28T08:47:03.000Z,97713
2022-07-28T08:49:09.000Z,97709
2022-07-28T08:50:36.000Z,97710
2022-07-28T08:52:42.000Z,97712
2022-07-28T08:54:08.000Z,97705
2022-07-28T08:56:14.000Z,97710
2022-07-28T08:57:41.000Z,97710
2022-07-28T08:59:47.000Z,97710
2022-07-28T09:01:14.000Z,97715
2022-07-28T09:03:20.000Z,97706
2022-07-28T09:04:47.000Z,97708
2022-07-28T09:06:53.000Z,97708
2022-07-28T09:08:19.000Z,97712
2022-07-28T09:10:26.000Z,97710
2022-07-28T09:11:52.000Z,97709
2022-07-28T09:13:58.000Z,97708
2022-07-28T09:15:25.000Z,97715
2022-07-28T09:17:31.000Z,97709
2022-07-28T09:18:57.000Z,97708
2022-07-28T09:21:04.000Z,97706
2022-07-28T09:23:55.000Z,97707
2022-07-28T09:25:21.000Z,97697
2022-07-28T09:27:27.000Z,97698
2022-07-28T09:28:54.000Z,97697
2022-07-28T09:31:00.000Z,97698
2022-07-28T09:32:27.000Z,97698
2022-07-28T09:34:33.000Z,97697
2022-07-28T09:36:00.000Z,97691
2022-07-28T09:38:08.000Z,97690
2022-07-28T09:39:34.000Z,97691
2022-07-28T09:41:41.000Z,97695
2022-07-28T09:43:07.000Z,97692
2022-07-28T09:45:13.000Z,97691
2022-07-28T09:46:50.000Z,97684
2022-07-28T09:48:57.000Z,97678
2022-07-28T09:50:24.000Z,97676
2022-07-28T09:52:30.000Z,97679
2022-07-28T09:53:56.000Z,97673
2022-07-28T09:56:02.000Z,97671
2022-07-28T09:57:29.000Z,97672
2022-07-28T09:59:37.000Z,97670
2022-07-28T10:02:29.000Z,97668
2022-07-28T10:03:57.000Z,97665
2022-07-28T10:06:08.000Z,97666
2022-07-28T10:07:34.000Z,97664
2022-07-28T10:09:41.000Z,97660
2022-07-28T10:11:07.000Z,97661
2022-07-28T10:13:13.000Z,97657
2022-07-28T10:14:40.000Z,97657
2022-07-28T10:16:46.000Z,97658
2022-07-28T10:18:13.000Z,97657
2022-07-28T10:20:19.000Z,97659
2022-07-28T10:21:46.000Z,97656
2022-07-28T10:23:52.000Z,97649
2022-07-28T10:25:18.000Z,97650
2022-07-28T10:27:25.000Z,97652
2022-07-28T10:28:51.000Z,97649
2022-07-28T10:30:57.000Z,97647
2022-07-28T10:32:24.000Z,97646
2022-07-28T10:34:30.000Z,97639
2022-07-28T10:35:57.000Z,97639
2022-07-28T10:38:03.000Z,97635
2022-07-28T10:40:54.000Z,97636
2022-07-28T10:42:21.000Z,97628
2022-07-28T10:44:27.000Z,97630
2022-07-28T10:45:54.000Z,97632
2022-07-28T10:48:12.000Z,97633
2022-07-28T10:49:39.000Z,97635
2022-07-28T10:51:48.000Z,97632
2022-07-28T10:53:35.000Z,97627
2022-07-28T10:55:43.000Z,97626
2022-07-28T10:57:10.000Z,97624
2022-07-28T10:59:16.000Z,97628
2022-07-28T11:00:44.000Z,97624
2022-07-28T11:03:02.000Z,97626
2022-07-28T11:04:40.000Z,97618
2022-07-28T11:06:47.000Z,97615
2022-07-28T11:08:13.000Z,97613
2022-07-28T11:10:20.000Z,97612
2022-07-28T11:11:46.000Z,97608
2022-07-28T11:13:52.000Z,97603
2022-07-28T11:15:19.000Z,97604
2022-07-28T11:17:25.000Z,97605
2022-07-28T11:20:24.000Z,97605
2022-07-28T11:21:56.000Z,97603
2022-07-28T11:24:02.000Z,97597
2022-07-28T11:25:28.000Z,97597
2022-07-28T11:27:34.000Z,97593
2022-07-28T11:29:01.000Z,97598
2022-07-28T11:31:07.000Z,97596
2022-07-28T11:32:34.000Z,97595
2022-07-28T11:34:50.000Z,97594
2022-07-28T11:36:16.000Z,97595
2022-07-28T11:38:22.000Z,97589
2022-07-28T11:39:49.000Z,97584
2022-07-28T11:41:56.000Z,97581
2022-07-28T11:43:23.000Z,97583
2022-07-28T11:45:44.000Z,97584
2022-07-28T11:47:21.000Z,97586
2022-07-28T11:49:28.000Z,97581
2022-07-28T11:50:54.000Z,97578
2022-07-28T11:53:00.000Z,97575
2022-07-28T11:54:27.000Z,97574
2022-07-28T11:56:33.000Z,97569
2022-07-28T11:59:24.000Z,97570
2022-07-28T12:01:03.000Z,97570
2022-07-28T12:03:09.000Z,97567
2022-07-28T12:04:36.000Z,97566
2022-07-28T12:06:42.000Z,97563
2022-07-28T12:08:08.000Z,97567
2022-07-28T12:10:15.000Z,97560
2022-07-28T12:12:10.000Z,97560
2022-07-28T12:14:16.000Z,97558
2022-07-28T12:15:44.000Z,97560
2022-07-28T12:17:50.000Z,97553
2022-07-28T12:19:16.000Z,97550
2022-07-28T12:21:23.000Z,97548
2022-07-28T12:22:53.000Z,97548
2022-07-28T12:24:59.000Z,97542
2022-07-28T12:26:26.000Z,97543
2022-07-28T12:28:32.000Z,97541
2022-07-28T12:29:59.000Z,97540
2022-07-28T12:32:05.000Z,97544
2022-07-28T12:33:32.000Z,97543
2022-07-28T12:35:38.000Z,97545
2022-07-28T12:38:29.000Z,97541
2022-07-28T12:39:55.000Z,97542
2022-07-28T12:42:02.000Z,97539
2022-07-28T12:43:28.000Z,97532
2022-07-28T12:45:34.000Z,97529
2022-07-28T12:47:01.000Z,97531
2022-07-28T12:49:07.000Z,97526
2022-07-28T12:50:34.000Z,97526
2022-07-28T12:52:40.000Z,97524
2022-07-28T12:54:06.000Z,97527
2022-07-28T12:56:13.000Z,97511
2022-07-28T12:57:39.000Z,97518
2022-07-28T12:59:54.000Z,97513
2022-07-28T13:01:21.000Z,97518
2022-07-28T13:03:27.000Z,97516
2022-07-28T13:04:53.000Z,97517
2022-07-28T13:07:00.000Z,97517
2022-07-28T13:08:26.000Z,97516
2022-07-28T13:10:35.000Z,97515
2022-07-28T13:12:02.000Z,97518
2022-07-28T13:14:09.000Z,97513
2022-07-28T13:17:00.000Z,97515
2022-07-28T13:18:26.000Z,97514
2022-07-28T13:20:33.000Z,97513
2022-07-28T13:21:59.000Z,97512
2022-07-28T13:25:45.000Z,97508
2022-07-28T13:26:19.000Z,97508
2022-07-28T13:27:45.000Z,97508
2022-07-28T13:29:58.000Z,97508
2022-07-28T13:31:25.000Z,97506
2022-07-28T13:33:31.000Z,97508
2022-07-28T13:34:58.000Z,97507
2022-07-28T13:37:04.000Z,97500
2022-07-28T13:38:30.000Z,97503
2022-07-28T13:40:37.000Z,97499
2022-07-28T13:42:03.000Z,97505
2022-07-28T13:44:11.000Z,97502
2022-07-28T13:45:38.000Z,97498
2022-07-28T13:47:46.000Z,97496
2022-07-28T13:49:18.000Z,97497
2022-07-28T13:51:27.000Z,97495
2022-07-28T13:52:54.000Z,97494
2022-07-28T13:55:00.000Z,97492
2022-07-28T13:57:49.000Z,97487
2022-07-28T13:59:16.000Z,97485
2022-07-28T14:01:22.000Z,97486
2022-07-28T14:02:49.000Z,97481
2022-07-28T14:04:55.000Z,97483
2022-07-28T14:06:21.000Z,97479
2022-07-28T14:08:28.000Z,97479
2022-07-28T14:09:54.000Z,97477
2022-07-28T14:12:01.000Z,97475
2022-07-28T14:13:28.000Z,97480
2022-07-28T14:15:44.000Z,97479
2022-07-28T14:17:10.000Z,97482
2022-07-28T14:19:49.000Z,97482
2022-07-28T14:21:15.000Z,97480
2022-07-28T14:23:21.000Z,97478
2022-07-28T14:24:48.000Z,97477
2022-07-28T14:26:54.000Z,97480
2022-07-28T14:28:21.000Z,97471
2022-07-28T14:30:27.000Z,97475
2022-07-28T14:31:53.000Z,97475
2022-07-28T14:34:00.000Z,97473
2022-07-28T14:36:51.000Z,97478
2022-07-28T14:40:56.000Z,97477
2022-07-28T14:42:22.000Z,97473
2022-07-28T14:44:28.000Z,97466
2022-07-28T14:45:55.000Z,97475
2022-07-28T14:48:20.000Z,97470
2022-07-28T14:49:47.000Z,97473
2022-07-28T14:52:04.000Z,97472
2022-07-28T14:53:31.000Z,97469
2022-07-28T14:55:41.000Z,97470
2022-07-28T14:57:07.000Z,97470
2022-07-28T14:59:13.000Z,97469
2022-07-28T15:00:40.000Z,97472
2022-07-28T15:02:46.000Z,97470
2022-07-28T15:04:13.000Z,97467
2022-07-28T15:06:19.000Z,97477
2022-07-28T15:07:46.000Z,97472
2022-07-28T15:09:52.000Z,97469
2022-07-28T15:11:19.000Z,97467
2022-07-28T15:13:25.000Z,97472
2022-07-28T15:16:16.000Z,97472
2022-07-28T15:17:42.000Z,97468
2022-07-28T15:19:49.000Z,97467
2022-07-28T15:21:15.000Z,97466
2022-07-28T15:23:21.000Z,97467
2022-07-28T15:24:48.000Z,97467
2022-07-28T15:26:54.000Z,97468
2022-07-28T15:28:20.000Z,97463
2022-07-28T15:30:27.000Z,97468
2022-07-28T15:31:53.000Z,97466
2022-07-28T15:34:00.000Z,97467
2022-07-28T15:35:27.000Z,97472
2022-07-28T15:37:33.000Z,97470
2022-07-28T15:38:59.000Z,97471
2022-07-28T15:41:06.000Z,97467
2022-07-28T15:42:32.000Z,97467
2022-07-28T15:44:38.000Z,97468
2022-07-28T15:46:05.000Z,97470
2022-07-28T15:48:11.000Z,97470
2022-07-28T15:49:38.000Z,97474
2022-07-28T15:51:44.000Z,97470
2022-07-28T15:54:35.000Z,97471
2022-07-28T15:56:02.000Z,97470
2022-07-28T15:58:08.000Z,97471
2022-07-28T15:59:34.000Z,97466
2022-07-28T16:01:56.000Z,97466
2022-07-28T16:03:23.000Z,97465
2022-07-28T16:05:29.000Z,97464
2022-07-28T16:06:58.000Z,97469
2022-07-28T16:09:04.000Z,97463
2022-07-28T16:10:30.000Z,97460
2022-07-28T16:12:36.000Z,97462
2022-07-28T16:14:03.000Z,97462
2022-07-28T16:16:09.000Z,97458
2022-07-28T16:17:36.000Z,97455
2022-07-28T16:19:42.000Z,97456
2022-07-28T16:21:16.000Z,97453
2022-07-28T16:23:22.000Z,97452
2022-07-28T16:24:48.000Z,97456
2022-07-28T16:26:54.000Z,97451
2022-07-28T16:28:21.000Z,97452
2022-07-28T16:30:27.000Z,97447
2022-07-28T16:33:18.000Z,97449
2022-07-28T16:34:45.000Z,97450
2022-07-28T16:36:51.000Z,97444
2022-07-28T16:38:17.000Z,97447
2022-07-28T16:40:23.000Z,97444
2022-07-28T16:41:50.000Z,97442
2022-07-28T16:43:56.000Z,97446
2022-07-28T16:45:23.000Z,97442
2022-07-28T16:47:36.000Z,97441
2022-07-28T16:49:03.000Z,97445
2022-07-28T16:51:09.000Z,97438
2022-07-28T16:52:36.000Z,97442
2022-07-28T16:54:42.000Z,97437
2022-07-28T16:56:08.000Z,97434
2022-07-28T16:58:15.000Z,97437
2022-07-28T16:59:41.000Z,97440
2022-07-28T17:03:27.000Z,97434
2022-07-28T17:04:01.000Z,97439
2022-07-28T17:05:28.000Z,97438
2022-07-28T17:07:34.000Z,97439
2022-07-28T17:09:00.000Z,97432
2022-07-28T17:11:07.000Z,97433
2022-07-28T17:13:52.000Z,97433
2022-07-28T17:15:18.000Z,97433
2022-07-28T17:17:28.000Z,97435
2022-07-28T17:18:55.000Z,97434
2022-07-28T17:21:01.000Z,97431
2022-07-28T17:22:28.000Z,97430
2022-07-28T17:24:34.000Z,97427
2022-07-28T17:26:00.000Z,97426
2022-07-28T17:29:41.000Z,97429
2022-07-28T17:31:08.000Z,97423
2022-07-28T17:33:14.000Z,97429
2022-07-28T17:34:41.000Z,97430
2022-07-28T17:36:47.000Z,97428
2022-07-28T17:38:14.000Z,97427
2022-07-28T17:40:20.000Z,97427
2022-07-28T17:41:53.000Z,97431
2022-07-28T17:44:00.000Z,97429
2022-07-28T17:45:26.000Z,97433
2022-07-28T17:47:32.000Z,97432
2022-07-28T17:49:02.000Z,97432
2022-07-28T17:51:09.000Z,97432
2022-07-28T17:54:00.000Z,97428
2022-07-28T17:55:27.000Z,97429
2022-07-28T17:57:37.000Z,97431
2022-07-28T17:59:06.000Z,97426
2022-07-28T18:01:12.000Z,97432
2022-07-28T18:02:39.000Z,97430
2022-07-28T18:04:45.000Z,97435
2022-07-28T18:06:12.000Z,97432
2022-07-28T18:08:18.000Z,97435
2022-07-28T18:09:44.000Z,97426
2022-07-28T18:11:51.000Z,97428
2022-07-28T18:13:24.000Z,97433
2022-07-28T18:15:31.000Z,97435
2022-07-28T18:16:57.000Z,97435
2022-07-28T18:19:03.000Z,97438
2022-07-28T18:20:30.000Z,97442
2022-07-28T18:22:36.000Z,97440
2022-07-28T18:24:02.000Z,97444
2022-07-28T18:26:09.000Z,97440
2022-07-28T18:27:35.000Z,97442
2022-07-28T18:29:41.000Z,97448
2022-07-28T18:32:33.000Z,97446
2022-07-28T18:33:59.000Z,97446
2022-07-28T18:36:05.000Z,97451
2022-07-28T18:37:32.000Z,97452
2022-07-28T18:39:38.000Z,97453
2022-07-28T18:41:05.000Z,97455
2022-07-28T18:43:11.000Z,97456
2022-07-28T18:44:39.000Z,97458
2022-07-28T18:46:47.000Z,97462
2022-07-28T18:48:14.000Z,97468
2022-07-28T18:50:20.000Z,97466
2022-07-28T18:51:58.000Z,97469
2022-07-28T18:54:04.000Z,97474
2022-07-28T18:55:31.000Z,97471
2022-07-28T18:57:37.000Z,97472
2022-07-28T18:59:04.000Z,97476
2022-07-28T19:01:10.000Z,97479
2022-07-28T19:02:39.000Z,97484
2022-07-28T19:04:46.000Z,97482
2022-07-28T19:06:12.000Z,97486
2022-07-28T19:08:18.000Z,97486
2022-07-28T19:11:10.000Z,97484
2022-07-28T19:12:36.000Z,97485
2022-07-28T19:14:42.000Z,97487
2022-07-28T19:16:09.000Z,97486
2022-07-28T19:18:15.000Z,97492
2022-07-28T19:19:42.000Z,97490
2022-07-28T19:21:48.000Z,97490
2022-07-28T19:23:14.000Z,97490
2022-07-28T19:25:21.000Z,97490
2022-07-28T19:26:49.000Z,97491
2022-07-28T19:28:55.000Z,97492
2022-07-28T19:30:22.000Z,97490
2022-07-28T19:32:28.000Z,97492
2022-07-28T19:33:54.000Z,97497
2022-07-28T19:36:00.000Z,97503
2022-07-28T19:37:27.000Z,97506
2022-07-28T19:39:33.000Z,97509
2022-07-28T19:41:00.000Z,97514
2022-07-28T19:43:06.000Z,97519
2022-07-28T19:44:32.000Z,97519
2022-07-28T19:46:39.000Z,97521
2022-07-28T19:49:30.000Z,97520
2022-07-28T19:50:56.000Z,97517
2022-07-28T19:53:03.000Z,97513
2022-07-28T19:54:30.000Z,97517
2022-07-28T19:56:37.000Z,97513
2022-07-28T19:58:03.000Z,97514
2022-07-28T20:00:09.000Z,97514
2022-07-28T20:01:36.000Z,97519
2022-07-28T20:03:52.000Z,97519
2022-07-28T20:05:30.000Z,97519
2022-07-28T20:07:36.000Z,97518
2022-07-28T20:09:03.000Z,97520
2022-07-28T20:11:09.000Z,97515
2022-07-28T20:12:36.000Z,97514
2022-07-28T20:14:43.000Z,97519
2022-07-28T20:16:09.000Z,97515
2022-07-28T20:18:15.000Z,97520
2022-07-28T20:19:42.000Z,97521
2022-07-28T20:21:48.000Z,97524
2022-07-28T20:23:15.000Z,97525
2022-07-28T20:25:21.000Z,97527
2022-07-28T20:28:12.000Z,97530
2022-07-28T20:29:39.000Z,97523
2022-07-28T20:31:45.000Z,97523
2022-07-28T20:33:11.000Z,97520
2022-07-28T20:35:18.000Z,97521
2022-07-28T20:36:44.000Z,97521
2022-07-28T20:38:50.000Z,97524
2022-07-28T20:40:17.000Z,97523
2022-07-28T20:42:23.000Z,97527
2022-07-28T20:43:49.000Z,97529
2022-07-28T20:46:24.000Z,97528
2022-07-28T20:47:51.000Z,97528
2022-07-28T20:49:57.000Z,97530
2022-07-28T20:51:24.000Z,97530
2022-07-28T20:53:30.000Z,97537
2022-07-28T20:54:56.000Z,97540
2022-07-28T20:57:02.000Z,97543
2022-07-28T20:58:29.000Z,97547
2022-07-28T21:00:36.000Z,97549
2022-07-28T21:02:02.000Z,97551
2022-07-28T21:04:08.000Z,97558
2022-07-28T21:07:02.000Z,97555
2022-07-28T21:08:30.000Z,97561
2022-07-28T21:10:36.000Z,97553
2022-07-28T21:12:03.000Z,97556
2022-07-28T21:14:09.000Z,97559
2022-07-28T21:15:36.000Z,97567
2022-07-28T21:17:42.000Z,97573
2022-07-28T21:19:08.000Z,97577
2022-07-28T21:21:15.000Z,97578
2022-07-28T21:22:41.000Z,97583
2022-07-28T21:24:47.000Z,97581
2022-07-28T21:26:21.000Z,97583
2022-07-28T21:28:27.000Z,97581
2022-07-28T21:32:00.000Z,97578
2022-07-28T21:33:32.000Z,97578
2022-07-28T21:35:38.000Z,97581
2022-07-28T21:37:05.000Z,97579
2022-07-28T21:39:11.000Z,97586
2022-07-28T21:40:37.000Z,97589
2022-07-28T21:42:43.000Z,97588
2022-07-28T21:45:35.000Z,97592
2022-07-28T21:47:01.000Z,97594
2022-07-28T21:49:07.000Z,97593
2022-07-28T21:50:34.000Z,97590
2022-07-28T21:52:40.000Z,97594
2022-07-28T21:54:07.000Z,97596
2022-07-28T21:56:13.000Z,97598
2022-07-28T21:57:39.000Z,97602
2022-07-28T21:59:45.000Z,97601
2022-07-28T22:01:14.000Z,97601
2022-07-28T22:03:21.000Z,97605
2022-07-28T22:04:47.000Z,97607
2022-07-28T22:06:54.000Z,97609
2022-07-28T22:08:20.000Z,97611
2022-07-28T22:10:26.000Z,97611
2022-07-28T22:11:53.000Z,97616
2022-07-28T22:13:59.000Z,97614
2022-07-28T22:15:25.000Z,97613
2022-07-28T22:17:32.000Z,97617
2022-07-28T22:18:58.000Z,97612
2022-07-28T22:21:04.000Z,97614
2022-07-28T22:23:55.000Z,97618
2022-07-28T22:25:22.000Z,97612
2022-07-28T22:27:28.000Z,97614
2022-07-28T22:28:55.000Z,97614
2022-07-28T22:31:01.000Z,97614
2022-07-28T22:32:36.000Z,97618
2022-07-28T22:34:42.000Z,97619
2022-07-28T22:36:08.000Z,97622
2022-07-28T22:38:15.000Z,97626
2022-07-28T22:39:41.000Z,97630
2022-07-28T22:41:47.000Z,97628
2022-07-28T22:43:14.000Z,97630
2022-07-28T22:45:20.000Z,97624
2022-07-28T22:47:17.000Z,97624
2022-07-28T22:49:23.000Z,97624
2022-07-28T22:50:50.000Z,97629
2022-07-28T22:52:56.000Z,97624
2022-07-28T22:54:23.000Z,97624
2022-07-28T22:56:29.000Z,97621
2022-07-28T22:58:04.000Z,97623
2022-07-28T23:00:11.000Z,97619
2022-07-28T23:03:02.000Z,97624
2022-07-28T23:04:30.000Z,97623
2022-07-28T23:06:36.000Z,97618
2022-07-28T23:08:02.000Z,97621
2022-07-28T23:10:08.000Z,97619
2022-07-28T23:11:35.000Z,97619
2022-07-28T23:13:41.000Z,97619
2022-07-28T23:15:08.000Z,97622
2022-07-28T23:17:14.000Z,97618
2022-07-28T23:18:40.000Z,97625
2022-07-28T23:20:46.000Z,97618
2022-07-28T23:22:13.000Z,97621
2022-07-28T23:24:19.000Z,97620
2022-07-28T23:25:46.000Z,97619
2022-07-28T23:27:52.000Z,97620
2022-07-28T23:29:18.000Z,97623
2022-07-28T23:31:24.000Z,97624
2022-07-28T23:32:51.000Z,97623
2022-07-28T23:34:57.000Z,97620
2022-07-28T23:36:23.000Z,97618
2022-07-28T23:38:33.000Z,97619
2022-07-28T23:41:24.000Z,97612
2022-07-28T23:42:51.000Z,97606
2022-07-28T23:44:57.000Z,97601
2022-07-28T23:46:23.000Z,97599
2022-07-28T23:48:30.000Z,97597